Time;durP1;ratioP1;P1;durP2;ratioP2;P2;SDS_P1;SDS_P2;PMS_P1;PMS_P2;Temp;Humidity;BMP_temperature;BMP_pressure;BME280_temperature;BME280_humidity;BME280_pressure;Samples;Min_cycle;Max_cycle;Signal;HPM_P1;HPM_P2
2022/04/10 00:02:11;;;;;;;9.90;2.28;;;;;;;;;;5118642;28;20019;-74
2022/04/10 00:04:37;;;;;;;7.32;1.90;;;;;;;;;;5118535;28;20025;-73
2022/04/10 00:07:03;;;;;;;9.25;3.67;;;;;;;;;;5116759;28;20023;-73
2022/04/10 00:09:29;;;;;;;4.80;2.03;;;;;;;;;;5118484;28;20019;-73
2022/04/10 00:11:55;;;;;;;4.72;1.75;;;;;;;;;;5117724;28;20428;-74
2022/04/10 00:14:21;;;;;;;6.60;1.98;;;;;;;;;;5117830;28;20103;-74
2022/04/10 00:16:47;;;;;;;7.10;2.17;;;;;;;;;;5118075;28;20383;-73
2022/04/10 00:19:13;;;;;;;5.70;2.40;;;;;;;;;;5118279;28;20050;-75
2022/04/10 00:21:39;;;;;;;9.13;2.67;;;;;;;;;;5118295;28;20023;-74
2022/04/10 00:24:05;;;;;;;7.30;2.50;;;;;;;;;;5117609;28;20019;-74
2022/04/10 00:26:31;;;;;;;8.13;1.92;;;;;;;;;;5116465;28;20016;-74
2022/04/10 00:28:58;;;;;;;7.82;2.00;;;;;;;;;;5118076;28;20054;-73
2022/04/10 00:31:24;;;;;;;10.10;2.70;;;;;;;;;;5116055;28;20340;-73
2022/04/10 00:33:50;;;;;;;9.82;2.85;;;;;;;;;;5117914;28;20019;-73
2022/04/10 00:36:16;;;;;;;8.23;2.55;;;;;;;;;;5118498;28;20035;-73
2022/04/10 00:38:42;;;;;;;6.78;2.28;;;;;;;;;;5116814;28;20027;-73
2022/04/10 00:41:08;;;;;;;8.82;2.70;;;;;;;;;;5117908;28;20104;-73
2022/04/10 00:43:36;;;;;;;7.30;2.63;;;;;;;;;;5117924;28;20397;-74
2022/04/10 00:46:02;;;;;;;3.80;1.77;;;;;;;;;;5117859;28;20065;-74
2022/04/10 00:48:28;;;;;;;5.68;2.17;;;;;;;;;;5117866;28;20028;-73
2022/04/10 00:53:40;;;;;;;13.18;2.22;;;;;;;;;;5117722;28;20102;-74
2022/04/10 00:56:06;;;;;;;6.82;2.00;;;;;;;;;;5117727;28;20023;-73
2022/04/10 00:58:32;;;;;;;5.18;2.22;;;;;;;;;;5117715;28;20020;-74
2022/04/10 01:00:58;;;;;;;3.95;1.52;;;;;;;;;;5117105;28;20110;-74
2022/04/10 01:03:24;;;;;;;6.93;2.22;;;;;;;;;;5117735;28;20052;-75
2022/04/10 01:05:50;;;;;;;5.93;2.00;;;;;;;;;;5115969;28;20479;-74
2022/04/10 01:08:16;;;;;;;8.55;2.90;;;;;;;;;;5117054;28;20025;-74
2022/04/10 01:10:42;;;;;;;8.13;2.08;;;;;;;;;;5115868;28;20332;-74
2022/04/10 01:13:09;;;;;;;5.03;2.13;;;;;;;;;;5117573;28;20337;-74
2022/04/10 01:15:36;;;;;;;5.88;2.10;;;;;;;;;;5116243;28;20016;-74
2022/04/10 01:18:03;;;;;;;6.50;2.72;;;;;;;;;;5116829;28;20027;-73
2022/04/10 01:20:29;;;;;;;8.82;2.90;;;;;;;;;;5116977;28;20031;-74
2022/04/10 01:22:55;;;;;;;7.10;2.13;;;;;;;;;;5117473;28;20020;-74
2022/04/10 01:25:21;;;;;;;5.60;2.10;;;;;;;;;;5117002;28;20016;-74
2022/04/10 01:27:47;;;;;;;7.90;2.70;;;;;;;;;;5119166;28;20366;-74
2022/04/10 01:30:15;;;;;;;6.65;1.85;;;;;;;;;;5117296;28;20045;-74
2022/04/10 01:32:41;;;;;;;7.78;2.97;;;;;;;;;;5116841;28;20026;-74
2022/04/10 01:35:07;;;;;;;4.80;1.83;;;;;;;;;;5117549;28;20024;-73
2022/04/10 01:37:34;;;;;;;10.80;5.28;;;;;;;;;;5116188;28;20024;-73
2022/04/10 01:40:00;;;;;;;4.95;2.17;;;;;;;;;;5117336;28;20023;-74
2022/04/10 01:42:26;;;;;;;5.57;1.77;;;;;;;;;;5118426;28;20023;-74
2022/04/10 01:44:52;;;;;;;5.88;2.88;;;;;;;;;;5120676;28;20583;-73
2022/04/10 01:47:19;;;;;;;6.90;2.70;;;;;;;;;;5121208;28;20015;-76
2022/04/10 01:49:45;;;;;;;11.27;2.83;;;;;;;;;;5121050;28;20039;-73
2022/04/10 01:52:11;;;;;;;4.85;2.60;;;;;;;;;;5121185;28;20473;-75
2022/04/10 01:54:37;;;;;;;6.78;2.20;;;;;;;;;;5120563;28;20396;-73
2022/04/10 01:57:03;;;;;;;5.70;2.35;;;;;;;;;;5121059;28;20034;-76
2022/04/10 01:59:29;;;;;;;16.05;2.85;;;;;;;;;;5121082;28;20026;-76
2022/04/10 02:01:55;;;;;;;12.27;2.42;;;;;;;;;;5119568;28;20047;-76
2022/04/10 02:04:21;;;;;;;10.50;2.92;;;;;;;;;;5120361;28;20026;-74
2022/04/10 02:06:48;;;;;;;5.85;1.92;;;;;;;;;;5120382;28;20026;-75
2022/04/10 02:09:14;;;;;;;4.20;1.90;;;;;;;;;;5119252;28;20110;-74
2022/04/10 02:11:40;;;;;;;4.53;2.28;;;;;;;;;;5119578;28;20164;-74
2022/04/10 02:14:06;;;;;;;5.43;1.60;;;;;;;;;;5123520;28;20328;-73
2022/04/10 02:16:32;;;;;;;3.10;1.35;;;;;;;;;;5120185;28;20016;-74
2022/04/10 02:18:58;;;;;;;3.30;1.50;;;;;;;;;;5120653;28;20405;-74
2022/04/10 02:21:24;;;;;;;7.60;1.83;;;;;;;;;;5120607;28;20023;-73
2022/04/10 02:23:50;;;;;;;5.68;1.60;;;;;;;;;;5119401;28;20023;-75
2022/04/10 02:26:16;;;;;;;4.75;0.95;;;;;;;;;;5120515;28;20408;-73
2022/04/10 02:28:42;;;;;;;5.47;1.73;;;;;;;;;;5120333;28;20015;-74
2022/04/10 02:31:08;;;;;;;4.35;1.92;;;;;;;;;;5120541;28;20035;-74
2022/04/10 02:33:34;;;;;;;4.47;1.30;;;;;;;;;;5102092;28;20329;-72
2022/04/10 02:36:00;;;;;;;5.63;1.73;;;;;;;;;;5118725;28;20436;-74
2022/04/10 02:38:26;;;;;;;4.95;1.88;;;;;;;;;;5119713;28;20429;-74
2022/04/10 02:40:53;;;;;;;4.68;2.28;;;;;;;;;;5120142;28;20051;-75
2022/04/10 02:43:19;;;;;;;6.20;1.50;;;;;;;;;;5118554;28;20102;-73
2022/04/10 02:45:45;;;;;;;5.35;2.28;;;;;;;;;;5119495;28;20023;-76
2022/04/10 02:48:11;;;;;;;4.78;1.30;;;;;;;;;;5101854;28;20015;-74
2022/04/10 02:50:38;;;;;;;4.65;2.13;;;;;;;;;;5119973;28;20421;-74
2022/04/10 02:53:04;;;;;;;5.13;1.40;;;;;;;;;;5119438;28;20318;-74
2022/04/10 02:55:30;;;;;;;7.53;1.67;;;;;;;;;;5118791;28;20310;-74
2022/04/10 02:57:56;;;;;;;3.67;1.15;;;;;;;;;;5118798;28;20027;-76
2022/04/10 03:00:22;;;;;;;5.72;2.05;;;;;;;;;;5119287;28;20019;-74
2022/04/10 03:02:48;;;;;;;4.75;1.63;;;;;;;;;;5120113;28;20107;-74
2022/04/10 03:05:15;;;;;;;4.65;1.60;;;;;;;;;;5119794;28;20023;-75
2022/04/10 03:07:41;;;;;;;3.13;1.45;;;;;;;;;;5119928;28;20080;-74
2022/04/10 03:10:07;;;;;;;6.85;1.60;;;;;;;;;;5119551;28;20023;-74
2022/04/10 03:12:33;;;;;;;17.83;2.47;;;;;;;;;;5119730;28;20053;-76
2022/04/10 03:14:59;;;;;;;5.65;1.65;;;;;;;;;;5119019;28;20011;-73
2022/04/10 03:17:25;;;;;;;4.97;1.60;;;;;;;;;;5118959;28;20020;-76
2022/04/10 03:19:51;;;;;;;7.60;1.55;;;;;;;;;;5118256;28;20020;-74
2022/04/10 03:22:17;;;;;;;9.20;2.00;;;;;;;;;;5118809;28;20011;-74
2022/04/10 03:24:43;;;;;;;5.47;1.77;;;;;;;;;;5119327;28;20423;-74
2022/04/10 03:27:09;;;;;;;7.35;2.58;;;;;;;;;;5119015;28;20144;-75
2022/04/10 03:29:35;;;;;;;7.35;1.85;;;;;;;;;;5117965;28;20035;-74
2022/04/10 03:32:01;;;;;;;6.60;2.20;;;;;;;;;;5118538;28;20473;-75
2022/04/10 03:34:27;;;;;;;9.70;2.35;;;;;;;;;;5119037;28;20114;-74
2022/04/10 03:36:53;;;;;;;16.33;2.70;;;;;;;;;;5118550;28;20466;-75
2022/04/10 03:39:19;;;;;;;8.13;2.17;;;;;;;;;;5117892;28;20136;-73
2022/04/10 03:41:45;;;;;;;12.90;3.00;;;;;;;;;;5117821;28;20405;-75
2022/04/10 03:44:11;;;;;;;9.23;2.58;;;;;;;;;;5118477;28;20343;-73
2022/04/10 03:46:37;;;;;;;11.88;3.30;;;;;;;;;;5118421;28;20016;-74
2022/04/10 03:49:03;;;;;;;14.02;2.50;;;;;;;;;;5118273;28;20028;-74
2022/04/10 03:51:29;;;;;;;6.10;2.00;;;;;;;;;;5118816;28;20076;-73
2022/04/10 03:53:55;;;;;;;8.13;2.85;;;;;;;;;;5118731;28;20022;-73
2022/04/10 03:56:21;;;;;;;7.70;2.50;;;;;;;;;;5118796;28;20027;-74
2022/04/10 03:58:47;;;;;;;6.45;2.00;;;;;;;;;;5118195;28;20020;-75
2022/04/10 04:01:13;;;;;;;6.78;2.95;;;;;;;;;;5117475;28;20409;-74
2022/04/10 04:03:39;;;;;;;7.07;2.22;;;;;;;;;;5117424;28;20043;-73
2022/04/10 04:06:05;;;;;;;6.65;1.77;;;;;;;;;;5118534;28;20051;-73
2022/04/10 04:08:31;;;;;;;11.00;1.80;;;;;;;;;;5118622;28;20355;-75
2022/04/10 04:10:57;;;;;;;8.27;1.95;;;;;;;;;;5117256;28;20031;-75
2022/04/10 04:13:23;;;;;;;8.05;2.65;;;;;;;;;;5116901;28;20330;-76
2022/04/10 04:15:50;;;;;;;18.30;4.63;;;;;;;;;;5117087;28;20083;-74
2022/04/10 04:18:17;;;;;;;3.95;2.30;;;;;;;;;;5117850;28;20110;-74
2022/04/10 04:20:43;;;;;;;8.05;3.65;;;;;;;;;;5117142;28;20039;-74
2022/04/10 04:23:09;;;;;;;8.98;2.03;;;;;;;;;;5118247;28;20025;-74
2022/04/10 04:25:35;;;;;;;6.47;2.05;;;;;;;;;;5117680;28;20019;-76
2022/04/10 04:28:01;;;;;;;8.02;1.60;;;;;;;;;;5118217;28;20328;-74
2022/04/10 04:30:28;;;;;;;7.75;3.03;;;;;;;;;;5118021;28;20028;-74
2022/04/10 04:32:56;;;;;;;7.53;2.00;;;;;;;;;;5118050;28;20127;-74
2022/04/10 04:35:23;;;;;;;7.80;1.95;;;;;;;;;;5116235;28;20024;-76
2022/04/10 04:37:49;;;;;;;6.32;2.58;;;;;;;;;;5116829;28;20026;-74
2022/04/10 04:40:15;;;;;;;8.77;3.67;;;;;;;;;;5117705;28;20023;-74
2022/04/10 04:42:42;;;;;;;18.38;4.85;;;;;;;;;;5116583;28;20332;-74
2022/04/10 04:45:09;;;;;;;8.27;2.40;;;;;;;;;;5117899;28;20062;-74
2022/04/10 04:47:36;;;;;;;8.05;2.85;;;;;;;;;;5117873;28;20019;-74
2022/04/10 04:50:02;;;;;;;17.48;4.70;;;;;;;;;;5117814;28;20324;-75
2022/04/10 04:52:28;;;;;;;7.00;2.53;;;;;;;;;;5117763;28;20333;-74
2022/04/10 04:54:54;;;;;;;9.77;2.53;;;;;;;;;;5117709;28;20022;-74
2022/04/10 04:57:20;;;;;;;12.10;3.60;;;;;;;;;;5117191;28;20345;-75
2022/04/10 04:59:46;;;;;;;6.03;2.75;;;;;;;;;;5117674;28;20026;-74
2022/04/10 05:02:12;;;;;;;13.82;2.80;;;;;;;;;;5117168;28;20020;-75
2022/04/10 05:04:38;;;;;;;11.20;3.13;;;;;;;;;;5099461;28;20446;-74
2022/04/10 05:07:04;;;;;;;13.68;3.25;;;;;;;;;;5117585;28;20019;-74
2022/04/10 05:09:30;;;;;;;11.88;3.05;;;;;;;;;;5099368;28;20019;-74
2022/04/10 05:11:56;;;;;;;10.15;2.65;;;;;;;;;;5116725;28;20023;-74
2022/04/10 05:14:22;;;;;;;11.82;2.90;;;;;;;;;;5116746;28;20024;-74
2022/04/10 05:16:48;;;;;;;13.18;3.28;;;;;;;;;;5116473;28;20024;-74
2022/04/10 05:19:14;;;;;;;24.33;6.25;;;;;;;;;;5119989;28;20031;-74
2022/04/10 05:21:40;;;;;;;14.77;2.88;;;;;;;;;;5121544;28;20019;-74
2022/04/10 05:24:06;;;;;;;11.55;4.40;;;;;;;;;;5120503;28;20489;-74
2022/04/10 05:26:32;;;;;;;21.10;3.90;;;;;;;;;;5121480;28;20027;-74
2022/04/10 05:28:58;;;;;;;15.20;3.33;;;;;;;;;;5121641;28;20023;-75
2022/04/10 05:31:24;;;;;;;9.20;3.88;;;;;;;;;;5121428;28;20036;-74
2022/04/10 05:33:50;;;;;;;13.75;4.07;;;;;;;;;;5120956;27;20012;-74
2022/04/10 05:36:17;;;;;;;23.88;4.43;;;;;;;;;;5103347;28;20034;-74
2022/04/10 05:38:45;;;;;;;13.48;4.75;;;;;;;;;;5120686;28;20425;-74
2022/04/10 05:41:14;;;;;;;14.30;5.38;;;;;;;;;;5121407;28;20034;-74
2022/04/10 05:43:40;;;;;;;10.80;2.60;;;;;;;;;;5121385;28;20050;-74
2022/04/10 05:46:06;;;;;;;22.80;3.72;;;;;;;;;;5119927;28;20019;-74
2022/04/10 05:48:32;;;;;;;23.38;4.18;;;;;;;;;;5120706;28;20018;-74
2022/04/10 05:50:58;;;;;;;15.55;3.60;;;;;;;;;;5121088;28;20077;-74
2022/04/10 05:53:24;;;;;;;21.05;5.82;;;;;;;;;;5120035;28;20362;-74
2022/04/10 05:55:50;;;;;;;14.73;4.35;;;;;;;;;;5121072;28;20069;-74
2022/04/10 05:58:16;;;;;;;22.23;4.82;;;;;;;;;;5121023;28;20019;-74
2022/04/10 06:00:42;;;;;;;11.00;3.95;;;;;;;;;;5121060;28;20331;-74
2022/04/10 06:03:08;;;;;;;22.85;4.65;;;;;;;;;;5119674;28;20073;-73
2022/04/10 06:05:34;;;;;;;24.73;5.90;;;;;;;;;;5120842;28;20019;-74
2022/04/10 06:08:00;;;;;;;12.63;3.03;;;;;;;;;;5120841;28;20080;-74
2022/04/10 06:10:26;;;;;;;29.15;6.20;;;;;;;;;;5120104;28;20031;-74
2022/04/10 06:12:52;;;;;;;37.78;8.02;;;;;;;;;;5120774;27;20099;-74
2022/04/10 06:15:19;;;;;;;15.50;3.58;;;;;;;;;;5118783;28;20096;-74
2022/04/10 06:17:45;;;;;;;23.52;4.68;;;;;;;;;;5119997;28;20016;-74
2022/04/10 06:20:11;;;;;;;23.38;6.47;;;;;;;;;;5120609;28;20023;-74
2022/04/10 06:22:37;;;;;;;59.90;7.68;;;;;;;;;;5119425;28;20035;-75
2022/04/10 06:25:03;;;;;;;33.88;8.70;;;;;;;;;;5120291;27;20020;-75
2022/04/10 06:27:29;;;;;;;36.30;9.93;;;;;;;;;;5120428;28;20015;-74
2022/04/10 06:29:55;;;;;;;34.03;9.00;;;;;;;;;;5119673;28;20320;-74
2022/04/10 06:32:21;;;;;;;25.52;7.82;;;;;;;;;;5119967;28;20020;-74
2022/04/10 06:34:47;;;;;;;31.67;6.43;;;;;;;;;;5119073;28;20027;-74
2022/04/10 06:37:14;;;;;;;39.72;6.88;;;;;;;;;;5120269;28;20111;-74
2022/04/10 06:39:40;;;;;;;25.38;6.40;;;;;;;;;;5120161;28;20340;-74
2022/04/10 06:42:07;;;;;;;37.00;6.70;;;;;;;;;;5120146;28;20095;-74
2022/04/10 06:44:33;;;;;;;28.58;5.35;;;;;;;;;;5123027;28;20477;-74
2022/04/10 06:46:59;;;;;;;28.70;8.63;;;;;;;;;;5120780;28;20110;-74
2022/04/10 06:49:25;;;;;;;22.27;5.70;;;;;;;;;;5119487;28;20329;-74
2022/04/10 06:51:51;;;;;;;24.00;4.82;;;;;;;;;;5119906;28;20035;-73
2022/04/10 06:54:17;;;;;;;35.72;7.65;;;;;;;;;;5118280;28;20443;-74
2022/04/10 06:56:44;;;;;;;28.20;6.15;;;;;;;;;;5119618;28;20016;-73
2022/04/10 06:59:10;;;;;;;50.58;6.70;;;;;;;;;;5118459;28;20027;-74
2022/04/10 07:01:36;;;;;;;25.35;4.90;;;;;;;;;;5119881;28;20420;-74
2022/04/10 07:04:02;;;;;;;27.55;7.03;;;;;;;;;;5118072;28;20065;-74
2022/04/10 07:06:28;;;;;;;28.25;8.70;;;;;;;;;;5119776;28;20453;-73
2022/04/10 07:08:54;;;;;;;27.30;5.47;;;;;;;;;;5119104;28;20055;-74
2022/04/10 07:11:20;;;;;;;31.73;5.60;;;;;;;;;;5118462;28;20059;-74
2022/04/10 07:13:46;;;;;;;40.97;8.40;;;;;;;;;;5119461;28;20043;-74
2022/04/10 07:16:12;;;;;;;26.10;4.85;;;;;;;;;;5119475;28;20110;-73
2022/04/10 07:18:38;;;;;;;36.47;5.97;;;;;;;;;;5118938;28;20016;-73
2022/04/10 07:21:04;;;;;;;26.83;5.10;;;;;;;;;;5118868;28;20016;-73
2022/04/10 07:23:43;;;;;;;25.67;7.13;;;;;;;;;;5119460;28;20045;-73
2022/04/10 07:26:10;;;;;;;36.30;5.72;;;;;;;;;;5128586;28;20084;-73
2022/04/10 07:28:39;;;;;;;44.08;7.32;;;;;;;;;;5128335;28;20079;-73
2022/04/10 07:31:06;;;;;;;39.10;6.10;;;;;;;;;;5127690;28;20484;-73
2022/04/10 07:33:32;;;;;;;33.70;6.13;;;;;;;;;;5124522;28;20019;-73
2022/04/10 07:35:58;;;;;;;55.75;8.82;;;;;;;;;;5118182;28;20120;-74
2022/04/10 07:38:25;;;;;;;32.08;7.30;;;;;;;;;;5117971;28;20019;-73
2022/04/10 07:40:51;;;;;;;32.88;9.90;;;;;;;;;;5117560;28;20039;-74
2022/04/10 07:43:17;;;;;;;28.95;7.80;;;;;;;;;;5118963;28;20061;-75
2022/04/10 07:48:32;;;;;;;35.20;7.97;;;;;;;;;;5113347;28;20084;-74
2022/04/10 07:50:58;;;;;;;45.58;8.00;;;;;;;;;;5121799;28;20023;-73
2022/04/10 07:53:24;;;;;;;35.17;6.22;;;;;;;;;;5127229;28;20020;-74
2022/04/10 07:55:50;;;;;;;31.58;6.45;;;;;;;;;;5128231;28;20024;-72
2022/04/10 07:58:16;;;;;;;39.38;7.75;;;;;;;;;;5128317;28;20081;-73
2022/04/10 08:00:42;;;;;;;32.60;7.53;;;;;;;;;;5121957;28;20394;-73
2022/04/10 08:03:08;;;;;;;34.28;7.80;;;;;;;;;;5118920;28;20048;-73
2022/04/10 08:05:34;;;;;;;34.22;5.63;;;;;;;;;;5118656;28;20058;-73
2022/04/10 08:08:01;;;;;;;31.05;8.10;;;;;;;;;;5118515;28;20336;-73
2022/04/10 08:10:29;;;;;;;42.58;7.90;;;;;;;;;;5126351;28;20106;-73
2022/04/10 08:12:55;;;;;;;34.53;8.85;;;;;;;;;;5119358;28;20027;-73
2022/04/10 08:15:21;;;;;;;36.15;8.25;;;;;;;;;;5118345;28;20016;-74
2022/04/10 08:17:47;;;;;;;41.00;8.30;;;;;;;;;;5118370;28;20111;-73
2022/04/10 08:20:13;;;;;;;46.88;7.15;;;;;;;;;;5118350;28;20421;-73
2022/04/10 08:22:39;;;;;;;38.45;9.85;;;;;;;;;;5117024;28;20115;-73
2022/04/10 08:25:12;;;;;;;48.53;7.45;;;;;;;;;;5118125;28;20120;-73
2022/04/10 08:27:39;;;;;;;32.08;7.70;;;;;;;;;;5118115;28;20020;-73
2022/04/10 08:30:08;;;;;;;35.28;6.82;;;;;;;;;;5117987;28;20435;-73
2022/04/10 08:32:37;;;;;;;39.20;7.60;;;;;;;;;;5118016;28;20067;-74
2022/04/10 08:35:03;;;;;;;37.65;5.75;;;;;;;;;;5118055;28;20054;-73
2022/04/10 08:37:29;;;;;;;37.35;6.13;;;;;;;;;;5117943;28;20016;-73
2022/04/10 08:39:55;;;;;;;37.78;7.57;;;;;;;;;;5117421;28;20401;-73
2022/04/10 08:42:21;;;;;;;34.83;8.00;;;;;;;;;;5116667;28;20098;-73
2022/04/10 08:44:47;;;;;;;51.40;10.05;;;;;;;;;;5116064;28;20023;-73
2022/04/10 08:47:20;;;;;;;43.30;9.32;;;;;;;;;;5117883;28;20057;-73
2022/04/10 08:49:47;;;;;;;33.92;8.60;;;;;;;;;;5117961;28;20015;-73
2022/04/10 08:52:12;;;;;;;39.78;7.38;;;;;;;;;;5117643;28;20066;-73
2022/04/10 08:54:40;;;;;;;34.30;6.07;;;;;;;;;;5116781;28;20422;-73
2022/04/10 08:57:07;;;;;;;26.08;6.88;;;;;;;;;;5117474;28;20015;-73
2022/04/10 08:59:33;;;;;;;36.25;5.35;;;;;;;;;;5117290;28;20020;-73
2022/04/10 09:01:59;;;;;;;43.33;7.63;;;;;;;;;;5117800;27;20023;-73
2022/04/10 09:04:25;;;;;;;41.78;10.30;;;;;;;;;;5117801;28;20020;-73
2022/04/10 09:06:58;;;;;;;49.40;9.98;;;;;;;;;;5116254;28;20379;-73
2022/04/10 09:09:24;;;;;;;24.23;6.63;;;;;;;;;;5118196;28;20016;-73
2022/04/10 09:11:54;;;;;;;32.25;7.70;;;;;;;;;;5117114;28;20034;-73
2022/04/10 09:14:21;;;;;;;33.42;6.82;;;;;;;;;;5118110;28;20020;-73
2022/04/10 09:17:07;;;;;;;35.53;6.13;;;;;;;;;;5117169;28;20110;-73
2022/04/10 09:19:37;;;;;;;38.92;6.63;;;;;;;;;;5119222;28;20400;-73
2022/04/10 09:22:19;;;;;;;61.38;7.85;;;;;;;;;;5118044;28;20033;-73
2022/04/10 09:25:03;;;;;;;39.30;6.80;;;;;;;;;;5120245;28;20020;-73
2022/04/10 09:27:31;;;;;;;29.65;5.72;;;;;;;;;;5117513;28;20024;-72
2022/04/10 09:29:57;;;;;;;41.22;7.13;;;;;;;;;;5117479;28;20047;-72
2022/04/10 09:32:35;;;;;;;36.10;6.68;;;;;;;;;;5117324;28;20031;-72
2022/04/10 09:35:01;;;;;;;23.02;5.35;;;;;;;;;;5115987;28;20024;-72
2022/04/10 09:37:30;;;;;;;23.95;6.13;;;;;;;;;;5117351;28;20027;-73
2022/04/10 09:40:15;;;;;;;44.90;7.13;;;;;;;;;;5117350;28;20022;-72
2022/04/10 09:42:41;;;;;;;32.25;5.25;;;;;;;;;;5098987;28;20130;-72
2022/04/10 09:45:25;;;;;;;36.20;8.40;;;;;;;;;;5117146;28;20425;-72
2022/04/10 09:47:51;;;;;;;43.13;7.30;;;;;;;;;;5117207;28;20347;-73
2022/04/10 09:50:17;;;;;;;45.17;6.88;;;;;;;;;;5117106;28;20024;-72
2022/04/10 09:52:43;;;;;;;39.10;6.93;;;;;;;;;;5117182;28;20425;-72
2022/04/10 09:55:29;;;;;;;38.35;8.15;;;;;;;;;;5117162;28;20035;-73
2022/04/10 09:57:59;;;;;;;25.98;6.32;;;;;;;;;;5117225;28;20019;-72
2022/04/10 10:00:25;;;;;;;32.30;6.85;;;;;;;;;;5117239;28;20044;-72
2022/04/10 10:02:51;;;;;;;37.65;6.22;;;;;;;;;;5117203;28;20027;-72
2022/04/10 10:05:17;;;;;;;26.67;5.82;;;;;;;;;;5119549;28;20012;-72
2022/04/10 10:07:43;;;;;;;30.58;5.78;;;;;;;;;;5121144;28;20106;-72
2022/04/10 10:10:11;;;;;;;33.33;9.05;;;;;;;;;;5120711;28;20011;-72
2022/04/10 10:12:37;;;;;;;34.10;7.43;;;;;;;;;;5119955;28;20425;-72
2022/04/10 10:15:03;;;;;;;25.33;6.22;;;;;;;;;;5121408;28;20023;-72
2022/04/10 10:17:30;;;;;;;49.13;6.38;;;;;;;;;;5121578;28;20023;-74
2022/04/10 10:19:57;;;;;;;39.88;5.55;;;;;;;;;;5120825;28;20043;-73
2022/04/10 10:22:23;;;;;;;23.77;8.35;;;;;;;;;;5120582;28;20026;-73
2022/04/10 10:24:49;;;;;;;37.88;6.88;;;;;;;;;;5122204;28;20106;-73
2022/04/10 10:27:28;;;;;;;29.85;5.65;;;;;;;;;;5119254;28;20019;-73
2022/04/10 10:29:54;;;;;;;21.13;5.47;;;;;;;;;;5120475;27;20026;-73
2022/04/10 10:32:32;;;;;;;28.42;7.13;;;;;;;;;;5120367;28;20028;-73
2022/04/10 10:34:58;;;;;;;37.70;8.38;;;;;;;;;;5120485;28;20024;-73
2022/04/10 10:37:29;;;;;;;34.20;5.97;;;;;;;;;;5120233;28;20076;-73
2022/04/10 10:39:55;;;;;;;30.00;5.85;;;;;;;;;;5120938;28;20023;-73
2022/04/10 10:42:22;;;;;;;36.53;5.88;;;;;;;;;;5120251;28;20024;-73
2022/04/10 10:44:49;;;;;;;23.70;4.28;;;;;;;;;;5118632;28;20038;-73
2022/04/10 10:47:16;;;;;;;32.17;6.80;;;;;;;;;;5120120;28;20018;-73
2022/04/10 10:49:44;;;;;;;20.25;5.00;;;;;;;;;;5120046;28;20015;-73
2022/04/10 10:52:11;;;;;;;29.50;5.90;;;;;;;;;;5119449;28;20031;-73
2022/04/10 10:54:45;;;;;;;26.25;6.72;;;;;;;;;;5119415;28;20019;-73
2022/04/10 10:57:27;;;;;;;42.45;8.20;;;;;;;;;;5119971;28;20020;-73
2022/04/10 11:00:04;;;;;;;47.15;7.90;;;;;;;;;;5119854;28;20172;-73
2022/04/10 11:02:35;;;;;;;29.30;4.82;;;;;;;;;;5119890;28;20455;-74
2022/04/10 11:05:01;;;;;;;;;;;;;;;;;;5120181;27;20019;-73
2022/04/10 11:07:27;;;;;;;38.67;7.32;;;;;;;;;;5119236;28;20221;-73
2022/04/10 11:10:00;;;;;;;31.88;6.72;;;;;;;;;;5119674;28;20207;-73
2022/04/10 11:12:33;;;;;;;32.90;7.63;;;;;;;;;;5119632;28;20027;-73
2022/04/10 11:15:04;;;;;;;33.83;6.88;;;;;;;;;;5119557;27;20015;-73
2022/04/10 11:17:32;;;;;;;20.48;4.18;;;;;;;;;;5119060;28;20012;-73
2022/04/10 11:20:01;;;;;;;29.52;5.15;;;;;;;;;;5119421;28;20019;-73
2022/04/10 11:22:46;;;;;;;38.85;8.00;;;;;;;;;;5118922;28;20077;-73
2022/04/10 11:25:12;;;;;;;26.88;6.07;;;;;;;;;;5119176;28;20359;-73
2022/04/10 11:27:47;;;;;;;40.10;8.20;;;;;;;;;;5117711;28;20020;-73
2022/04/10 11:30:14;;;;;;;31.30;8.43;;;;;;;;;;5118808;28;20496;-73
2022/04/10 11:33:00;;;;;;;48.05;9.63;;;;;;;;;;5118984;28;20058;-73
2022/04/10 11:35:28;;;;;;;41.22;8.35;;;;;;;;;;5118937;28;20040;-73
2022/04/10 11:37:54;;;;;;;36.22;7.90;;;;;;;;;;5119054;28;20026;-73
2022/04/10 11:40:22;;;;;;;33.35;10.00;;;;;;;;;;5119150;28;20443;-73
2022/04/10 11:42:48;;;;;;;38.95;6.65;;;;;;;;;;5118985;28;20077;-73
2022/04/10 11:45:14;;;;;;;27.33;5.00;;;;;;;;;;5118436;28;20012;-73
2022/04/10 11:47:42;;;;;;;41.45;7.93;;;;;;;;;;5118414;28;20016;-73
2022/04/10 11:50:09;;;;;;;34.53;5.72;;;;;;;;;;5118913;28;20024;-73
2022/04/10 11:52:37;;;;;;;24.70;5.20;;;;;;;;;;5117534;28;20436;-73
2022/04/10 11:55:07;;;;;;;22.77;6.10;;;;;;;;;;5100574;28;20064;-73
2022/04/10 11:57:33;;;;;;;;;;;;;;;;;;5118952;28;20023;-73
2022/04/10 11:59:59;;;;;;;32.13;6.53;;;;;;;;;;5118630;28;19904;-73
2022/04/10 12:02:25;;;;;;;34.72;8.13;;;;;;;;;;5117305;28;20039;-73
2022/04/10 12:04:52;;;;;;;39.60;7.20;;;;;;;;;;5118581;28;20047;-73
2022/04/10 12:07:19;;;;;;;33.33;8.38;;;;;;;;;;5118081;28;20018;-73
2022/04/10 12:09:46;;;;;;;28.65;6.90;;;;;;;;;;5118431;28;20378;-73
2022/04/10 12:12:13;;;;;;;59.92;11.80;;;;;;;;;;5117261;28;20028;-73
2022/04/10 12:14:41;;;;;;;35.45;7.05;;;;;;;;;;5118578;28;20361;-73
2022/04/10 12:17:13;;;;;;;36.70;7.70;;;;;;;;;;5118335;28;20023;-73
2022/04/10 12:19:39;;;;;;;51.20;9.73;;;;;;;;;;5117556;28;20012;-73
2022/04/10 12:22:07;;;;;;;52.85;13.73;;;;;;;;;;5118130;28;20016;-73
2022/04/10 12:24:35;;;;;;;38.40;9.43;;;;;;;;;;5117027;28;20023;-73
2022/04/10 12:27:03;;;;;;;39.95;9.70;;;;;;;;;;5117726;28;20035;-73
2022/04/10 12:29:29;;;;;;;52.70;9.98;;;;;;;;;;5118259;28;20064;-73
2022/04/10 12:31:56;;;;;;;38.22;11.40;;;;;;;;;;5118065;28;20049;-73
2022/04/10 12:34:22;;;;;;;36.22;9.00;;;;;;;;;;5117853;28;20305;-73
2022/04/10 12:36:52;;;;;;;49.85;12.98;;;;;;;;;;5116773;28;20027;-73
2022/04/10 12:39:28;;;;;;;38.53;11.25;;;;;;;;;;5118074;28;20020;-73
2022/04/10 12:41:58;;;;;;;55.60;14.13;;;;;;;;;;5118203;28;20020;-73
2022/04/10 12:44:24;;;;;;;31.42;11.20;;;;;;;;;;5118742;28;20019;-73
2022/04/10 12:46:50;;;;;;;47.17;14.30;;;;;;;;;;5118105;28;20026;-73
2022/04/10 12:49:17;;;;;;;54.72;13.00;;;;;;;;;;5118180;28;20022;-73
2022/04/10 12:51:57;;;;;;;72.47;22.20;;;;;;;;;;5118278;28;20165;-73
2022/04/10 12:54:32;;;;;;;59.63;20.00;;;;;;;;;;5119884;28;20027;-73
2022/04/10 12:56:58;;;;;;;93.90;28.70;;;;;;;;;;5118844;28;20333;-73
2022/04/10 12:59:35;;;;;;;69.47;24.75;;;;;;;;;;5118137;28;20024;-73
2022/04/10 13:02:01;;;;;;;62.10;21.35;;;;;;;;;;5117250;28;20039;-73
2022/04/10 13:04:29;;;;;;;83.78;29.25;;;;;;;;;;5117835;28;20031;-72
2022/04/10 13:06:55;;;;;;;70.80;20.92;;;;;;;;;;5116914;28;20019;-72
2022/04/10 13:09:21;;;;;;;65.88;21.90;;;;;;;;;;5117483;28;20069;-73
2022/04/10 13:11:47;;;;;;;70.57;20.10;;;;;;;;;;5117103;28;20035;-72
2022/04/10 13:14:16;;;;;;;57.13;18.58;;;;;;;;;;5116583;28;20027;-72
2022/04/10 13:16:43;;;;;;;54.72;20.65;;;;;;;;;;5119620;28;20042;-72
2022/04/10 13:19:10;;;;;;;68.28;20.85;;;;;;;;;;5117612;28;20023;-72
2022/04/10 13:21:37;;;;;;;60.70;19.73;;;;;;;;;;5117617;28;20015;-72
2022/04/10 13:24:07;;;;;;;59.17;17.15;;;;;;;;;;5117029;28;20448;-72
2022/04/10 13:26:33;;;;;;;48.00;15.90;;;;;;;;;;5116417;28;20019;-73
2022/04/10 13:29:00;;;;;;;55.22;16.25;;;;;;;;;;5117505;28;20050;-73
2022/04/10 13:31:26;;;;;;;61.97;18.88;;;;;;;;;;5117392;28;20034;-73
2022/04/10 13:33:52;;;;;;;66.28;18.83;;;;;;;;;;5116822;28;20095;-73
2022/04/10 13:36:18;;;;;;;57.85;19.58;;;;;;;;;;5117399;28;20468;-73
2022/04/10 13:38:44;;;;;;;50.85;16.98;;;;;;;;;;5117153;28;20328;-73
2022/04/10 13:41:11;;;;;;;69.35;20.83;;;;;;;;;;5119975;28;20031;-73
2022/04/10 13:43:37;;;;;;;69.07;18.92;;;;;;;;;;5120220;28;20366;-72
2022/04/10 13:46:03;;;;;;;59.22;19.50;;;;;;;;;;5121400;28;20425;-72
2022/04/10 13:48:29;;;;;;;61.45;18.42;;;;;;;;;;5121368;28;20089;-72
2022/04/10 13:50:55;;;;;;;60.47;19.27;;;;;;;;;;5121168;28;20027;-73
2022/04/10 13:53:21;;;;;;;57.75;16.98;;;;;;;;;;5121258;28;20027;-73
2022/04/10 13:55:48;;;;;;;59.78;17.55;;;;;;;;;;5121159;28;20030;-73
2022/04/10 13:58:14;;;;;;;68.72;21.98;;;;;;;;;;5120679;28;20020;-73
2022/04/10 14:00:40;;;;;;;98.35;35.78;;;;;;;;;;5119946;28;20020;-73
2022/04/10 14:03:06;;;;;;;60.75;29.25;;;;;;;;;;5121010;28;20023;-73
2022/04/10 14:05:32;;;;;;;64.70;24.80;;;;;;;;;;5121020;28;20413;-73
2022/04/10 14:07:58;;;;;;;65.50;25.73;;;;;;;;;;5119783;28;20030;-72
2022/04/10 14:10:24;;;;;;;74.95;25.40;;;;;;;;;;5120850;28;20413;-72
2022/04/10 14:12:50;;;;;;;64.75;27.83;;;;;;;;;;5119520;28;20024;-73
2022/04/10 14:15:16;;;;;;;62.20;26.85;;;;;;;;;;5120812;28;20098;-73
2022/04/10 14:17:42;;;;;;;77.85;24.83;;;;;;;;;;5120902;28;20024;-72
2022/04/10 14:20:08;;;;;;;81.50;26.10;;;;;;;;;;5120157;28;20027;-72
2022/04/10 14:22:34;;;;;;;69.30;24.33;;;;;;;;;;5120696;28;20030;-72
2022/04/10 14:25:01;;;;;;;62.33;25.20;;;;;;;;;;5120614;28;20068;-72
2022/04/10 14:27:27;;;;;;;69.65;23.92;;;;;;;;;;5119419;28;20022;-72
2022/04/10 14:29:53;;;;;;;75.78;25.88;;;;;;;;;;5120548;28;20029;-73
2022/04/10 14:32:19;;;;;;;159.27;87.90;;;;;;;;;;5120447;28;20417;-73
2022/04/10 14:34:45;;;;;;;108.90;48.83;;;;;;;;;;5120213;28;20321;-73
2022/04/10 14:37:11;;;;;;;88.72;41.33;;;;;;;;;;5120440;28;20024;-72
2022/04/10 14:39:37;;;;;;;83.22;36.13;;;;;;;;;;5121167;28;20020;-72